createdAt,value
2023-05-19T00:01:17.616Z,7.22
2023-05-19T00:03:57.702Z,6.95
2023-05-19T00:06:26.830Z,7.18
2023-05-19T00:08:59.402Z,7.25
2023-05-19T00:11:27.768Z,8.23
2023-05-19T00:13:55.921Z,7.50
2023-05-19T00:16:23.912Z,6.90
2023-05-19T00:18:51.689Z,9.30
2023-05-19T00:21:18.686Z,7.55
2023-05-19T00:23:45.655Z,6.97
2023-05-19T00:26:12.761Z,8.18
2023-05-19T00:28:39.462Z,8.52
2023-05-19T00:31:06.506Z,7.85
2023-05-19T00:33:34.037Z,6.68
2023-05-19T00:36:03.966Z,8.03
2023-05-19T00:38:32.017Z,10.35
2023-05-19T00:40:59.802Z,7.95
2023-05-19T00:43:26.785Z,8.45
2023-05-19T00:45:53.675Z,8.57
2023-05-19T00:48:20.892Z,8.80
2023-05-19T00:50:48.510Z,7.35
2023-05-19T00:53:18.183Z,7.97
2023-05-19T00:55:46.270Z,7.63
2023-05-19T00:58:14.552Z,7.88
2023-05-19T01:00:42.730Z,7.83
2023-05-19T01:03:12.777Z,8.02
2023-05-19T01:05:44.748Z,8.00
2023-05-19T01:08:11.849Z,11.40
2023-05-19T01:10:38.517Z,8.77
2023-05-19T01:13:06.512Z,8.63
2023-05-19T01:15:55.042Z,7.32
2023-05-19T01:18:27.774Z,6.63
2023-05-19T01:21:36.239Z,8.38
2023-05-19T01:24:35.064Z,6.97
2023-05-19T01:27:01.629Z,6.60
2023-05-19T01:29:33.001Z,7.38
2023-05-19T01:32:00.545Z,8.07
2023-05-19T01:34:27.677Z,10.80
2023-05-19T01:36:55.967Z,9.45
2023-05-19T01:39:24.948Z,5.77
2023-05-19T01:41:53.633Z,10.15
2023-05-19T01:44:22.165Z,8.05
2023-05-19T01:46:49.701Z,7.97
2023-05-19T01:49:16.499Z,7.43
2023-05-19T01:51:43.394Z,6.97
2023-05-19T01:54:10.063Z,9.27
2023-05-19T01:57:00.700Z,8.25
2023-05-19T01:59:55.518Z,9.40
2023-05-19T02:02:35.315Z,7.63
2023-05-19T02:05:13.501Z,7.50
2023-05-19T02:07:51.010Z,6.57
2023-05-19T02:10:24.214Z,8.38
2023-05-19T02:12:54.105Z,8.20
2023-05-19T02:15:27.992Z,6.90
2023-05-19T02:17:55.789Z,6.53
2023-05-19T02:20:22.562Z,7.05
2023-05-19T02:22:49.298Z,7.03
2023-05-19T02:25:16.068Z,7.10
2023-05-19T02:27:42.783Z,7.25
2023-05-19T02:30:10.242Z,7.57
2023-05-19T02:32:37.273Z,6.60
2023-05-19T02:35:04.847Z,6.35
2023-05-19T02:37:32.518Z,6.50
2023-05-19T02:39:59.364Z,7.43
2023-05-19T02:42:26.140Z,6.27
2023-05-19T02:44:54.800Z,6.97
2023-05-19T02:47:21.557Z,6.40
2023-05-19T02:49:48.318Z,8.07
2023-05-19T02:52:14.985Z,7.20
2023-05-19T02:54:41.714Z,7.03
2023-05-19T02:57:08.428Z,6.68
2023-05-19T02:59:35.346Z,6.60
2023-05-19T03:02:02.977Z,6.47
2023-05-19T03:04:29.939Z,6.35
2023-05-19T03:06:57.810Z,6.30
2023-05-19T03:09:24.616Z,7.60
2023-05-19T03:11:51.533Z,6.63
2023-05-19T03:14:18.801Z,6.88
2023-05-19T03:16:45.879Z,5.60
2023-05-19T03:19:12.816Z,7.03
2023-05-19T03:21:39.503Z,5.50
2023-05-19T03:24:07.130Z,6.85
2023-05-19T03:26:33.804Z,6.28
2023-05-19T03:29:00.967Z,6.93
2023-05-19T03:31:27.760Z,7.30
2023-05-19T03:33:54.466Z,6.30
2023-05-19T03:36:22.157Z,6.30
2023-05-19T03:38:48.983Z,6.07
2023-05-19T03:41:16.009Z,7.60
2023-05-19T03:43:42.737Z,11.30
2023-05-19T03:46:09.468Z,7.28
2023-05-19T03:48:36.334Z,7.00
2023-05-19T03:51:04.385Z,6.93
2023-05-19T03:53:31.088Z,7.93
2023-05-19T03:55:57.755Z,8.00
2023-05-19T03:58:24.409Z,7.28
2023-05-19T04:00:51.088Z,6.80
2023-05-19T04:03:18.925Z,8.48
2023-05-19T04:05:45.696Z,7.13
2023-05-19T04:08:12.398Z,8.70
2023-05-19T04:10:39.110Z,7.22
2023-05-19T04:13:05.862Z,6.72
2023-05-19T04:15:32.566Z,7.65
2023-05-19T04:17:59.280Z,7.65
2023-05-19T04:20:25.947Z,7.47
2023-05-19T04:22:52.604Z,7.45
2023-05-19T04:25:20.184Z,8.18
2023-05-19T04:27:48.268Z,6.70
2023-05-19T04:30:22.023Z,7.03
2023-05-19T04:32:51.628Z,6.70
2023-05-19T04:35:18.398Z,8.80
2023-05-19T04:37:48.476Z,6.80
2023-05-19T04:40:15.961Z,6.68
2023-05-19T04:42:43.132Z,5.80
2023-05-19T04:45:10.370Z,7.60
2023-05-19T04:47:38.174Z,8.30
2023-05-19T04:50:05.734Z,6.60
2023-05-19T04:52:32.444Z,6.85
2023-05-19T04:54:59.180Z,7.18
2023-05-19T04:57:26.015Z,6.83
2023-05-19T04:59:53.241Z,6.07
2023-05-19T05:02:20.236Z,7.72
2023-05-19T05:04:47.023Z,6.22
2023-05-19T05:07:13.676Z,7.28
2023-05-19T05:09:40.514Z,6.07
2023-05-19T05:12:07.999Z,7.95
2023-05-19T05:14:35.022Z,7.68
2023-05-19T05:17:02.509Z,7.95
2023-05-19T05:19:29.552Z,7.68
2023-05-19T05:21:56.575Z,6.10
2023-05-19T05:24:23.516Z,8.48
2023-05-19T05:26:50.511Z,7.47
2023-05-19T05:29:17.196Z,7.80
2023-05-19T05:31:43.890Z,8.02
2023-05-19T05:34:10.821Z,6.27
2023-05-19T05:36:37.472Z,6.75
2023-05-19T05:39:05.579Z,6.30
2023-05-19T05:41:35.449Z,7.32
2023-05-19T05:44:03.180Z,6.78
2023-05-19T05:46:30.362Z,7.83
2023-05-19T05:48:57.621Z,8.20
2023-05-19T05:51:24.645Z,8.05
2023-05-19T05:53:55.360Z,7.60
2023-05-19T05:56:22.403Z,7.65
2023-05-19T05:58:49.701Z,7.07
2023-05-19T06:01:17.736Z,5.53
2023-05-19T06:03:45.135Z,6.72
2023-05-19T06:06:13.910Z,8.23
2023-05-19T06:08:40.883Z,5.95
2023-05-19T06:11:10.552Z,6.07
2023-05-19T06:13:38.645Z,5.88
2023-05-19T06:16:06.136Z,6.80
2023-05-19T06:18:33.013Z,7.85
2023-05-19T06:20:59.723Z,8.80
2023-05-19T06:23:29.004Z,4.87
2023-05-19T06:25:56.443Z,6.20
2023-05-19T06:28:23.198Z,6.65
2023-05-19T06:30:50.005Z,5.93
2023-05-19T06:33:16.759Z,6.88
2023-05-19T06:35:43.490Z,6.20
2023-05-19T06:38:10.476Z,5.80
2023-05-19T06:40:37.222Z,6.15
2023-05-19T06:43:04.828Z,6.82
2023-05-19T06:45:31.929Z,7.35
2023-05-19T06:47:58.912Z,9.20
2023-05-19T06:50:25.698Z,7.07
2023-05-19T06:52:52.829Z,6.95
2023-05-19T06:55:19.793Z,6.47
2023-05-19T06:57:46.510Z,6.80
2023-05-19T07:00:16.730Z,6.57
2023-05-19T07:02:45.101Z,6.38
2023-05-19T07:05:11.886Z,5.60
2023-05-19T07:07:38.556Z,6.00
2023-05-19T07:10:05.889Z,8.18
2023-05-19T07:12:32.624Z,7.73
2023-05-19T07:14:59.348Z,7.28
2023-05-19T07:17:26.258Z,6.43
2023-05-19T07:19:53.015Z,6.20
2023-05-19T07:22:19.757Z,7.20
2023-05-19T07:24:46.457Z,8.67
2023-05-19T07:27:13.162Z,8.80
2023-05-19T07:29:40.020Z,6.88
2023-05-19T07:32:07.087Z,9.02
2023-05-19T07:34:33.850Z,7.68
2023-05-19T07:37:00.679Z,7.23
2023-05-19T07:39:29.723Z,7.53
2023-05-19T07:41:56.621Z,7.40
2023-05-19T07:44:23.486Z,5.93
2023-05-19T07:46:50.193Z,7.93
2023-05-19T07:49:16.861Z,5.40
2023-05-19T07:51:43.525Z,6.50
2023-05-19T07:54:10.368Z,6.18
2023-05-19T07:56:37.226Z,6.97
2023-05-19T07:59:04.561Z,7.15
2023-05-19T08:01:32.377Z,7.30
2023-05-19T08:03:59.169Z,8.10
2023-05-19T08:06:26.039Z,5.53
2023-05-19T08:08:54.281Z,7.18
2023-05-19T08:11:21.616Z,5.75
2023-05-19T08:13:49.327Z,6.97
2023-05-19T08:16:16.339Z,6.40
2023-05-19T08:18:43.388Z,5.53
2023-05-19T08:21:10.218Z,7.22
2023-05-19T08:23:37.507Z,6.28
2023-05-19T08:26:04.765Z,7.20
2023-05-19T08:28:32.058Z,6.60
2023-05-19T08:30:58.779Z,7.75
2023-05-19T08:33:25.634Z,7.30
2023-05-19T08:35:52.355Z,5.15
2023-05-19T08:38:19.090Z,6.47
2023-05-19T08:40:47.466Z,6.45
2023-05-19T08:43:14.616Z,8.35
2023-05-19T08:45:48.315Z,7.88
2023-05-19T08:48:17.103Z,7.70
2023-05-19T08:51:02.212Z,6.37
2023-05-19T08:53:37.700Z,6.45
2023-05-19T08:56:18.228Z,5.18
2023-05-19T08:58:45.991Z,5.68
2023-05-19T09:01:16.916Z,7.20
2023-05-19T09:03:45.067Z,6.97
2023-05-19T09:06:14.898Z,6.30
2023-05-19T09:08:42.977Z,6.35
2023-05-19T09:11:10.822Z,7.03
2023-05-19T09:13:37.807Z,5.97
2023-05-19T09:16:04.940Z,8.27
2023-05-19T09:18:31.924Z,4.95
2023-05-19T09:21:05.049Z,5.68
2023-05-19T09:23:34.086Z,6.25
2023-05-19T09:26:07.282Z,4.65
2023-05-19T09:28:36.403Z,7.77
2023-05-19T09:31:08.493Z,5.93
2023-05-19T09:33:36.386Z,5.20
2023-05-19T09:36:06.145Z,6.53
2023-05-19T09:38:33.129Z,5.80
2023-05-19T09:41:00.794Z,7.13
2023-05-19T09:43:32.874Z,5.63
2023-05-19T09:46:06.837Z,6.53
2023-05-19T09:48:37.435Z,6.47
2023-05-19T09:51:06.290Z,5.97
2023-05-19T09:53:34.361Z,5.37
2023-05-19T09:56:02.268Z,6.15
2023-05-19T09:58:36.525Z,6.20
2023-05-19T10:01:04.616Z,6.65
2023-05-19T10:03:33.009Z,7.93
2023-05-19T10:06:01.989Z,5.83
2023-05-19T10:08:30.595Z,6.25
2023-05-19T10:10:57.790Z,6.60
2023-05-19T10:13:25.565Z,7.45
2023-05-19T10:18:23.092Z,6.53
2023-05-19T10:20:51.124Z,6.50
2023-05-19T10:23:18.677Z,7.43
2023-05-19T10:25:46.447Z,7.53
2023-05-19T10:28:16.298Z,7.47
2023-05-19T10:30:50.860Z,6.50
2023-05-19T10:33:23.199Z,6.78
2023-05-19T10:36:10.953Z,5.30
2023-05-19T10:38:52.640Z,7.90
2023-05-19T10:41:31.824Z,8.05
2023-05-19T10:44:28.099Z,6.93
2023-05-19T10:46:56.814Z,6.78
2023-05-19T10:49:24.353Z,6.82
2023-05-19T10:51:58.430Z,5.63
2023-05-19T10:54:41.177Z,6.15
2023-05-19T10:57:08.735Z,6.97
2023-05-19T10:59:39.910Z,7.43
2023-05-19T11:02:08.695Z,6.47
2023-05-19T11:04:52.001Z,7.25
2023-05-19T11:07:24.618Z,7.05
2023-05-19T11:09:54.546Z,6.13
2023-05-19T11:12:25.561Z,6.55
2023-05-19T11:14:54.301Z,6.68
2023-05-19T11:17:24.288Z,9.02
2023-05-19T11:19:55.289Z,8.10
2023-05-19T11:22:29.485Z,7.03
2023-05-19T11:24:57.260Z,8.05
2023-05-19T11:27:32.753Z,10.10
2023-05-19T11:30:02.123Z,8.90
2023-05-19T11:32:30.888Z,8.68
2023-05-19T11:34:58.084Z,9.03
2023-05-19T11:37:25.121Z,9.18
2023-05-19T11:39:52.939Z,10.02
2023-05-19T11:42:19.710Z,7.50
2023-05-19T11:44:46.817Z,8.80
2023-05-19T11:47:14.895Z,8.40
2023-05-19T11:49:45.997Z,7.63
2023-05-19T11:52:13.144Z,8.63
2023-05-19T11:54:41.925Z,7.43
2023-05-19T11:57:14.094Z,8.02
2023-05-19T11:59:45.413Z,13.00
2023-05-19T12:02:24.936Z,8.30
2023-05-19T12:04:52.202Z,8.98
2023-05-19T12:07:22.796Z,8.18
2023-05-19T12:09:50.967Z,7.47
2023-05-19T12:12:19.598Z,8.03
2023-05-19T12:14:47.275Z,7.35
2023-05-19T12:17:19.488Z,7.60
2023-05-19T12:19:48.612Z,7.90
2023-05-19T12:22:17.244Z,7.22
2023-05-19T12:24:45.115Z,9.00
2023-05-19T12:27:15.421Z,7.22
2023-05-19T12:29:42.205Z,8.95
2023-05-19T12:32:09.880Z,8.90
2023-05-19T12:34:38.226Z,8.55
2023-05-19T12:37:05.972Z,13.50
2023-05-19T12:39:33.748Z,8.57
2023-05-19T12:42:04.544Z,9.48
2023-05-19T12:44:31.588Z,8.38
2023-05-19T12:46:59.553Z,8.70
2023-05-19T12:49:26.349Z,12.27
2023-05-19T12:51:54.031Z,11.85
2023-05-19T12:54:22.075Z,10.20
2023-05-19T12:56:52.857Z,10.70
2023-05-19T12:59:37.451Z,11.13
2023-05-19T13:02:06.350Z,12.67
2023-05-19T13:04:33.215Z,9.65
2023-05-19T13:07:00.032Z,11.63
2023-05-19T13:09:27.903Z,9.80
2023-05-19T13:11:54.873Z,13.00
2023-05-19T13:14:21.981Z,10.43
2023-05-19T13:16:48.744Z,12.70
2023-05-19T13:19:25.247Z,10.95
2023-05-19T13:21:52.900Z,14.75
2023-05-19T13:24:19.620Z,14.73
2023-05-19T13:26:46.503Z,11.53
2023-05-19T13:29:13.195Z,12.70
2023-05-19T13:31:39.957Z,12.25
2023-05-19T13:34:07.019Z,11.13
2023-05-19T13:36:34.961Z,14.27
2023-05-19T13:39:01.764Z,13.33
2023-05-19T13:41:29.503Z,10.90
2023-05-19T13:44:01.097Z,11.00
2023-05-19T13:46:40.815Z,12.15
2023-05-19T13:49:11.243Z,10.30
2023-05-19T13:51:42.610Z,9.83
2023-05-19T13:54:09.968Z,13.32
2023-05-19T13:56:36.857Z,11.35
2023-05-19T13:59:04.152Z,11.60
2023-05-19T14:01:31.012Z,10.82
2023-05-19T14:03:57.899Z,10.47
2023-05-19T14:06:24.818Z,10.48
2023-05-19T14:08:51.559Z,10.38
2023-05-19T14:11:22.595Z,11.02
2023-05-19T14:13:53.146Z,11.82
2023-05-19T14:16:23.106Z,10.67
2023-05-19T14:18:49.976Z,10.10
2023-05-19T14:21:16.819Z,10.13
2023-05-19T14:23:43.629Z,10.50
2023-05-19T14:26:10.349Z,12.50
2023-05-19T14:28:37.121Z,9.47
2023-05-19T14:31:03.981Z,10.13
2023-05-19T14:33:34.887Z,10.73
2023-05-19T14:36:02.354Z,9.82
2023-05-19T14:38:29.549Z,12.43
2023-05-19T14:40:56.659Z,12.93
2023-05-19T14:43:23.567Z,11.70
2023-05-19T14:45:50.330Z,11.70
2023-05-19T14:48:17.835Z,13.00
2023-05-19T14:50:44.847Z,13.25
2023-05-19T14:53:11.768Z,8.70
2023-05-19T14:55:38.478Z,11.52
2023-05-19T14:58:15.982Z,10.05
2023-05-19T15:00:52.342Z,11.60
2023-05-19T15:03:19.647Z,11.80
2023-05-19T15:05:46.435Z,8.87
2023-05-19T15:08:13.339Z,10.80
2023-05-19T15:10:40.077Z,11.23
2023-05-19T15:13:06.798Z,11.27
2023-05-19T15:15:33.523Z,10.32
2023-05-19T15:18:00.414Z,8.27
2023-05-19T15:20:29.359Z,11.30
2023-05-19T15:22:56.272Z,9.38
2023-05-19T15:25:22.992Z,10.52
2023-05-19T15:27:49.896Z,10.35
2023-05-19T15:30:16.689Z,11.33
2023-05-19T15:32:43.430Z,12.48
2023-05-19T15:35:10.270Z,9.05
2023-05-19T15:37:36.957Z,11.82
2023-05-19T15:40:04.512Z,8.82
2023-05-19T15:42:31.256Z,9.63
2023-05-19T15:44:57.967Z,8.57
2023-05-19T15:47:24.681Z,10.35
2023-05-19T15:49:51.526Z,9.73
2023-05-19T15:52:18.264Z,9.52
2023-05-19T15:54:45.055Z,10.93
2023-05-19T15:57:13.566Z,9.52
2023-05-19T15:59:40.300Z,9.43
2023-05-19T16:02:07.643Z,10.25
2023-05-19T16:04:34.440Z,11.63
2023-05-19T16:07:01.099Z,11.03
2023-05-19T16:09:27.760Z,11.63
2023-05-19T16:11:54.498Z,10.38
2023-05-19T16:14:21.109Z,10.65
2023-05-19T16:16:48.437Z,10.85
2023-05-19T16:19:15.232Z,10.67
2023-05-19T16:21:41.975Z,12.35
2023-05-19T16:24:08.713Z,15.50
2023-05-19T16:26:35.385Z,11.27
2023-05-19T16:29:02.201Z,12.95
2023-05-19T16:31:29.066Z,12.47
2023-05-19T16:33:55.723Z,12.15
2023-05-19T16:36:25.193Z,12.95
2023-05-19T16:38:51.827Z,14.20
2023-05-19T16:41:18.590Z,12.20
2023-05-19T16:43:45.354Z,13.97
2023-05-19T16:46:12.414Z,12.30
2023-05-19T16:48:39.198Z,12.40
2023-05-19T16:51:06.399Z,12.23
2023-05-19T16:53:33.140Z,12.50
2023-05-19T16:55:59.842Z,13.57
2023-05-19T16:58:28.029Z,13.02
2023-05-19T17:00:56.196Z,12.32
2023-05-19T17:03:23.001Z,14.07
2023-05-19T17:05:49.696Z,12.40
2023-05-19T17:08:16.615Z,12.57
2023-05-19T17:10:44.826Z,13.30
2023-05-19T17:13:11.738Z,13.80
2023-05-19T17:15:39.327Z,12.13
2023-05-19T17:18:07.052Z,14.38
2023-05-19T17:20:33.855Z,13.80
2023-05-19T17:23:00.656Z,13.07
2023-05-19T17:25:27.394Z,17.88
2023-05-19T17:27:55.659Z,11.68
2023-05-19T17:30:22.452Z,19.70
2023-05-19T17:32:49.407Z,15.20
2023-05-19T17:35:16.581Z,14.00
2023-05-19T17:37:43.251Z,14.05
2023-05-19T17:40:10.807Z,13.32
2023-05-19T17:42:37.483Z,12.07
2023-05-19T17:45:07.449Z,15.17
2023-05-19T17:47:34.493Z,15.32
2023-05-19T17:50:01.217Z,14.35
2023-05-19T17:52:28.233Z,15.63
2023-05-19T17:54:55.201Z,14.35
2023-05-19T17:57:25.309Z,15.10
2023-05-19T17:59:52.377Z,12.93
2023-05-19T18:02:19.746Z,13.95
2023-05-19T18:04:46.644Z,16.08
2023-05-19T18:07:14.280Z,14.35
2023-05-19T18:09:45.507Z,14.87
2023-05-19T18:12:12.611Z,13.63
2023-05-19T18:14:39.745Z,15.23
2023-05-19T18:17:06.538Z,16.85
2023-05-19T18:19:33.314Z,15.02
2023-05-19T18:22:00.144Z,17.30
2023-05-19T18:24:27.058Z,14.68
2023-05-19T18:26:53.788Z,14.60
2023-05-19T18:29:20.505Z,14.57
2023-05-19T18:31:47.289Z,17.08
2023-05-19T18:34:14.265Z,14.03
2023-05-19T18:36:41.277Z,14.05
2023-05-19T18:39:08.036Z,13.95
2023-05-19T18:41:34.761Z,14.32
2023-05-19T18:44:01.434Z,13.30
2023-05-19T18:46:28.177Z,13.63
2023-05-19T18:48:54.966Z,14.85
2023-05-19T18:51:22.262Z,14.30
2023-05-19T18:53:50.075Z,14.45
2023-05-19T18:56:27.530Z,12.80
2023-05-19T18:58:54.830Z,16.30
2023-05-19T19:01:21.686Z,13.95
2023-05-19T19:03:49.352Z,14.23
2023-05-19T19:06:23.395Z,13.60
2023-05-19T19:08:50.569Z,14.52
2023-05-19T19:11:17.270Z,14.83
2023-05-19T19:13:44.066Z,14.80
2023-05-19T19:16:11.079Z,12.30
2023-05-19T19:18:37.931Z,15.23
2023-05-19T19:21:05.967Z,14.60
2023-05-19T19:23:33.029Z,14.17
2023-05-19T19:26:00.144Z,15.68
2023-05-19T19:28:26.963Z,14.43
2023-05-19T19:30:53.734Z,16.45
2023-05-19T19:33:20.579Z,13.60
2023-05-19T19:35:47.517Z,14.30
2023-05-19T19:38:14.318Z,14.30
2023-05-19T19:40:41.161Z,14.68
2023-05-19T19:43:07.867Z,13.48
2023-05-19T19:45:34.899Z,13.45
2023-05-19T19:48:01.829Z,13.97
2023-05-19T19:50:28.616Z,12.13
2023-05-19T19:52:55.432Z,12.75
2023-05-19T19:55:22.164Z,12.60
2023-05-19T19:57:51.122Z,15.90
2023-05-19T20:00:18.558Z,17.00
2023-05-19T20:03:03.052Z,14.88
2023-05-19T20:05:31.476Z,13.15
2023-05-19T20:07:58.302Z,15.05
2023-05-19T20:10:25.044Z,13.18
2023-05-19T20:12:52.092Z,14.33
2023-05-19T20:15:18.862Z,13.38
2023-05-19T20:17:45.881Z,15.27
2023-05-19T20:20:13.090Z,13.85
2023-05-19T20:22:40.025Z,16.48
2023-05-19T20:25:07.250Z,16.27
2023-05-19T20:27:33.997Z,13.13
2023-05-19T20:30:00.746Z,17.10
2023-05-19T20:32:27.539Z,17.30
2023-05-19T20:34:54.271Z,16.75
2023-05-19T20:37:22.168Z,14.83
2023-05-19T20:39:49.054Z,13.20
2023-05-19T20:42:16.064Z,15.45
2023-05-19T20:44:42.875Z,18.75
2023-05-19T20:47:09.601Z,19.20
2023-05-19T20:49:36.425Z,15.23
2023-05-19T20:52:03.501Z,14.23
2023-05-19T20:54:30.207Z,14.10
2023-05-19T20:56:57.018Z,14.23
2023-05-19T20:59:23.720Z,14.27
2023-05-19T21:01:50.549Z,14.90
2023-05-19T21:04:17.507Z,12.85
2023-05-19T21:06:44.319Z,13.45
2023-05-19T21:09:11.447Z,16.33
2023-05-19T21:11:38.277Z,15.80
2023-05-19T21:14:05.106Z,17.17
2023-05-19T21:16:32.395Z,16.30
2023-05-19T21:18:59.214Z,16.05
2023-05-19T21:21:26.407Z,17.00
2023-05-19T21:23:53.105Z,17.13
2023-05-19T21:26:19.870Z,15.13
2023-05-19T21:28:47.050Z,15.40
2023-05-19T21:31:13.828Z,17.33
2023-05-19T21:33:40.603Z,17.25
2023-05-19T21:36:07.673Z,16.00
2023-05-19T21:38:34.382Z,17.43
2023-05-19T21:41:01.106Z,15.30
2023-05-19T21:43:27.828Z,15.60
2023-05-19T21:45:54.480Z,16.83
2023-05-19T21:48:21.658Z,18.02
2023-05-19T21:50:55.279Z,17.00
2023-05-19T21:53:22.106Z,14.77
2023-05-19T21:55:48.972Z,16.55
2023-05-19T21:58:16.114Z,15.45
2023-05-19T22:00:43.463Z,14.23
2023-05-19T22:03:10.292Z,14.60
2023-05-19T22:05:38.257Z,15.85
2023-05-19T22:08:05.297Z,17.58
2023-05-19T22:10:32.260Z,14.85
2023-05-19T22:12:59.353Z,14.27
2023-05-19T22:15:26.720Z,15.00
2023-05-19T22:17:53.554Z,14.88
2023-05-19T22:20:20.503Z,17.60
2023-05-19T22:22:47.300Z,13.82
2023-05-19T22:25:14.218Z,15.23
2023-05-19T22:27:40.864Z,16.70
2023-05-19T22:30:08.053Z,14.60
2023-05-19T22:32:35.217Z,15.45
2023-05-19T22:35:01.973Z,19.33
2023-05-19T22:37:29.044Z,19.77
2023-05-19T22:39:56.248Z,15.97
2023-05-19T22:42:22.941Z,15.88
2023-05-19T22:44:49.666Z,16.65
2023-05-19T22:47:16.562Z,16.10
2023-05-19T22:49:43.468Z,16.90
2023-05-19T22:52:11.225Z,16.33
2023-05-19T22:54:38.332Z,15.30
2023-05-19T22:57:05.523Z,17.00
2023-05-19T22:59:32.261Z,16.73
2023-05-19T23:01:59.023Z,18.58
2023-05-19T23:04:26.109Z,15.63
2023-05-19T23:06:52.826Z,17.88
2023-05-19T23:09:19.667Z,16.48
2023-05-19T23:11:46.345Z,13.15
2023-05-19T23:14:13.481Z,15.20
2023-05-19T23:16:40.355Z,15.83
2023-05-19T23:19:07.309Z,17.08
2023-05-19T23:21:34.026Z,15.85
2023-05-19T23:24:01.029Z,87.28
2023-05-19T23:26:27.783Z,20.80
2023-05-19T23:28:54.543Z,15.93
2023-05-19T23:31:21.356Z,14.60
2023-05-19T23:33:48.081Z,14.88
2023-05-19T23:36:14.810Z,12.95
2023-05-19T23:38:41.498Z,15.43
2023-05-19T23:41:08.347Z,14.23
2023-05-19T23:43:35.085Z,13.43
2023-05-19T23:46:01.931Z,16.83
2023-05-19T23:48:29.429Z,14.82
2023-05-19T23:50:57.720Z,14.23
2023-05-19T23:53:25.048Z,13.37
2023-05-19T23:55:51.798Z,14.75
2023-05-19T23:58:18.807Z,15.68
